sensor_id;sensor_type;location;lat;lon;timestamp;P1;durP1;ratioP1;P2;durP2;ratioP2
57055;SDS011;42945;51.718;5.324;2023-03-01T00:00:42;13.23;;;6.55;;
57055;SDS011;42945;51.718;5.324;2023-03-01T00:06:33;18.70;;;7.18;;
57055;SDS011;42945;51.718;5.324;2023-03-01T00:12:21;16.33;;;7.07;;
57055;SDS011;42945;51.718;5.324;2023-03-01T00:18:11;14.32;;;6.80;;
57055;SDS011;42945;51.718;5.324;2023-03-01T00:23:59;11.80;;;5.85;;
57055;SDS011;42945;51.718;5.324;2023-03-01T00:29:48;11.60;;;6.18;;
57055;SDS011;42945;51.718;5.324;2023-03-01T00:35:36;12.55;;;5.88;;
57055;SDS011;42945;51.718;5.324;2023-03-01T00:41:24;11.73;;;5.97;;
57055;SDS011;42945;51.718;5.324;2023-03-01T00:50:40;14.00;;;6.00;;
57055;SDS011;42945;51.718;5.324;2023-03-01T00:56:28;13.88;;;5.88;;
57055;SDS011;42945;51.718;5.324;2023-03-01T01:02:18;13.57;;;5.30;;
57055;SDS011;42945;51.718;5.324;2023-03-01T01:08:06;11.02;;;5.50;;
57055;SDS011;42945;51.718;5.324;2023-03-01T01:13:55;14.10;;;6.30;;
57055;SDS011;42945;51.718;5.324;2023-03-01T01:19:44;12.52;;;5.75;;
57055;SDS011;42945;51.718;5.324;2023-03-01T01:25:34;11.50;;;5.85;;
57055;SDS011;42945;51.718;5.324;2023-03-01T01:31:25;13.73;;;6.38;;
57055;SDS011;42945;51.718;5.324;2023-03-01T01:37:12;12.20;;;6.15;;
57055;SDS011;42945;51.718;5.324;2023-03-01T01:42:59;13.52;;;6.38;;
57055;SDS011;42945;51.718;5.324;2023-03-01T01:48:49;13.60;;;6.32;;
57055;SDS011;42945;51.718;5.324;2023-03-01T01:54:46;11.05;;;5.72;;
57055;SDS011;42945;51.718;5.324;2023-03-01T02:00:39;13.40;;;5.95;;
57055;SDS011;42945;51.718;5.324;2023-03-01T02:06:29;17.15;;;6.53;;
57055;SDS011;42945;51.718;5.324;2023-03-01T02:12:23;14.23;;;6.20;;
57055;SDS011;42945;51.718;5.324;2023-03-01T02:18:14;11.90;;;6.40;;
57055;SDS011;42945;51.718;5.324;2023-03-01T02:30:18;15.38;;;6.75;;
57055;SDS011;42945;51.718;5.324;2023-03-01T02:36:09;13.55;;;6.70;;
57055;SDS011;42945;51.718;5.324;2023-03-01T02:42:07;16.10;;;6.80;;
57055;SDS011;42945;51.718;5.324;2023-03-01T02:48:03;13.70;;;6.38;;
57055;SDS011;42945;51.718;5.324;2023-03-01T02:53:58;12.93;;;6.85;;
57055;SDS011;42945;51.718;5.324;2023-03-01T03:00:09;15.88;;;6.78;;
57055;SDS011;42945;51.718;5.324;2023-03-01T03:05:53;12.90;;;5.72;;
57055;SDS011;42945;51.718;5.324;2023-03-01T03:11:41;14.73;;;6.72;;
57055;SDS011;42945;51.718;5.324;2023-03-01T03:17:30;19.33;;;7.05;;
57055;SDS011;42945;51.718;5.324;2023-03-01T03:23:17;15.93;;;6.45;;
57055;SDS011;42945;51.718;5.324;2023-03-01T03:29:08;15.07;;;5.95;;
57055;SDS011;42945;51.718;5.324;2023-03-01T03:34:57;13.32;;;6.68;;
57055;SDS011;42945;51.718;5.324;2023-03-01T03:40:48;12.32;;;6.30;;
57055;SDS011;42945;51.718;5.324;2023-03-01T03:46:38;12.13;;;5.43;;
57055;SDS011;42945;51.718;5.324;2023-03-01T03:52:26;11.60;;;5.53;;
57055;SDS011;42945;51.718;5.324;2023-03-01T03:58:14;15.63;;;6.28;;
57055;SDS011;42945;51.718;5.324;2023-03-01T04:04:02;14.35;;;6.35;;
57055;SDS011;42945;51.718;5.324;2023-03-01T04:09:51;11.63;;;5.57;;
57055;SDS011;42945;51.718;5.324;2023-03-01T04:15:39;12.70;;;6.07;;
57055;SDS011;42945;51.718;5.324;2023-03-01T04:21:29;11.90;;;5.95;;
57055;SDS011;42945;51.718;5.324;2023-03-01T04:27:17;16.05;;;6.25;;
57055;SDS011;42945;51.718;5.324;2023-03-01T04:33:05;15.52;;;6.60;;
57055;SDS011;42945;51.718;5.324;2023-03-01T04:38:54;14.23;;;5.63;;
57055;SDS011;42945;51.718;5.324;2023-03-01T04:44:43;15.60;;;6.63;;
57055;SDS011;42945;51.718;5.324;2023-03-01T04:50:32;11.50;;;6.20;;
57055;SDS011;42945;51.718;5.324;2023-03-01T04:56:21;11.98;;;5.65;;
57055;SDS011;42945;51.718;5.324;2023-03-01T05:02:10;13.70;;;5.85;;
57055;SDS011;42945;51.718;5.324;2023-03-01T05:07:59;13.60;;;6.72;;
57055;SDS011;42945;51.718;5.324;2023-03-01T05:13:50;11.43;;;5.40;;
57055;SDS011;42945;51.718;5.324;2023-03-01T05:19:42;9.75;;;5.30;;
57055;SDS011;42945;51.718;5.324;2023-03-01T05:25:30;16.33;;;6.38;;
57055;SDS011;42945;51.718;5.324;2023-03-01T05:31:20;11.02;;;5.47;;
57055;SDS011;42945;51.718;5.324;2023-03-01T05:37:09;13.05;;;6.28;;
57055;SDS011;42945;51.718;5.324;2023-03-01T05:42:56;14.15;;;6.10;;
57055;SDS011;42945;51.718;5.324;2023-03-01T05:48:45;14.27;;;5.57;;
57055;SDS011;42945;51.718;5.324;2023-03-01T05:54:33;12.00;;;5.70;;
57055;SDS011;42945;51.718;5.324;2023-03-01T06:00:20;12.60;;;5.70;;
57055;SDS011;42945;51.718;5.324;2023-03-01T06:06:09;7.90;;;3.70;;
57055;SDS011;42945;51.718;5.324;2023-03-01T06:11:58;13.82;;;5.47;;
57055;SDS011;42945;51.718;5.324;2023-03-01T06:17:45;13.30;;;5.55;;
57055;SDS011;42945;51.718;5.324;2023-03-01T06:23:34;13.73;;;6.00;;
57055;SDS011;42945;51.718;5.324;2023-03-01T06:29:22;13.93;;;6.18;;
57055;SDS011;42945;51.718;5.324;2023-03-01T06:35:12;12.73;;;5.90;;
57055;SDS011;42945;51.718;5.324;2023-03-01T06:41:07;12.60;;;6.22;;
57055;SDS011;42945;51.718;5.324;2023-03-01T06:46:56;19.17;;;8.07;;
57055;SDS011;42945;51.718;5.324;2023-03-01T06:56:32;13.02;;;5.68;;
57055;SDS011;42945;51.718;5.324;2023-03-01T07:02:20;13.02;;;6.10;;
57055;SDS011;42945;51.718;5.324;2023-03-01T07:08:08;12.95;;;6.03;;
57055;SDS011;42945;51.718;5.324;2023-03-01T07:13:56;26.00;;;8.30;;
57055;SDS011;42945;51.718;5.324;2023-03-01T07:19:45;17.83;;;6.50;;
57055;SDS011;42945;51.718;5.324;2023-03-01T07:25:33;14.55;;;6.80;;
57055;SDS011;42945;51.718;5.324;2023-03-01T07:31:21;13.27;;;6.22;;
57055;SDS011;42945;51.718;5.324;2023-03-01T07:37:09;15.93;;;5.75;;
57055;SDS011;42945;51.718;5.324;2023-03-01T07:42:57;16.25;;;6.20;;
57055;SDS011;42945;51.718;5.324;2023-03-01T07:48:45;12.73;;;5.95;;
57055;SDS011;42945;51.718;5.324;2023-03-01T07:54:33;12.60;;;6.05;;
57055;SDS011;42945;51.718;5.324;2023-03-01T08:00:21;13.10;;;5.40;;
57055;SDS011;42945;51.718;5.324;2023-03-01T08:06:11;17.20;;;6.45;;
57055;SDS011;42945;51.718;5.324;2023-03-01T08:12:02;13.95;;;6.55;;
57055;SDS011;42945;51.718;5.324;2023-03-01T08:17:51;15.00;;;6.50;;
57055;SDS011;42945;51.718;5.324;2023-03-01T08:23:40;16.75;;;6.53;;
57055;SDS011;42945;51.718;5.324;2023-03-01T08:29:32;13.80;;;6.78;;
57055;SDS011;42945;51.718;5.324;2023-03-01T08:35:20;12.57;;;6.45;;
57055;SDS011;42945;51.718;5.324;2023-03-01T08:41:09;11.88;;;4.95;;
57055;SDS011;42945;51.718;5.324;2023-03-01T08:46:57;18.42;;;6.07;;
57055;SDS011;42945;51.718;5.324;2023-03-01T08:52:45;14.75;;;6.82;;
57055;SDS011;42945;51.718;5.324;2023-03-01T08:58:33;12.80;;;6.53;;
57055;SDS011;42945;51.718;5.324;2023-03-01T09:04:22;13.88;;;5.97;;
57055;SDS011;42945;51.718;5.324;2023-03-01T09:10:11;15.20;;;6.65;;
57055;SDS011;42945;51.718;5.324;2023-03-01T09:16:00;14.50;;;6.72;;
57055;SDS011;42945;51.718;5.324;2023-03-01T09:21:50;13.60;;;6.68;;
57055;SDS011;42945;51.718;5.324;2023-03-01T09:27:43;20.58;;;6.10;;
57055;SDS011;42945;51.718;5.324;2023-03-01T09:33:32;12.25;;;5.80;;
57055;SDS011;42945;51.718;5.324;2023-03-01T09:39:20;12.73;;;6.10;;
57055;SDS011;42945;51.718;5.324;2023-03-01T09:45:15;13.02;;;6.03;;
57055;SDS011;42945;51.718;5.324;2023-03-01T09:51:18;14.05;;;6.38;;
57055;SDS011;42945;51.718;5.324;2023-03-01T10:01:02;12.63;;;5.88;;
57055;SDS011;42945;51.718;5.324;2023-03-01T10:07:07;10.57;;;5.97;;
57055;SDS011;42945;51.718;5.324;2023-03-01T10:13:10;9.38;;;5.88;;
57055;SDS011;42945;51.718;5.324;2023-03-01T10:19:05;11.00;;;5.93;;
57055;SDS011;42945;51.718;5.324;2023-03-01T10:24:58;8.85;;;5.22;;
57055;SDS011;42945;51.718;5.324;2023-03-01T10:30:49;14.75;;;5.68;;
57055;SDS011;42945;51.718;5.324;2023-03-01T10:36:41;12.57;;;5.90;;
57055;SDS011;42945;51.718;5.324;2023-03-01T10:42:30;8.20;;;4.40;;
57055;SDS011;42945;51.718;5.324;2023-03-01T10:48:23;9.35;;;5.18;;
57055;SDS011;42945;51.718;5.324;2023-03-01T10:57:32;9.73;;;5.30;;
57055;SDS011;42945;51.718;5.324;2023-03-01T11:03:26;14.68;;;6.60;;
57055;SDS011;42945;51.718;5.324;2023-03-01T11:09:22;7.28;;;4.07;;
57055;SDS011;42945;51.718;5.324;2023-03-01T11:15:21;10.90;;;5.53;;
57055;SDS011;42945;51.718;5.324;2023-03-01T11:21:17;10.40;;;5.57;;
57055;SDS011;42945;51.718;5.324;2023-03-01T11:27:08;12.05;;;5.65;;
57055;SDS011;42945;51.718;5.324;2023-03-01T11:45:06;9.75;;;5.55;;
57055;SDS011;42945;51.718;5.324;2023-03-01T11:50:56;10.05;;;5.10;;
57055;SDS011;42945;51.718;5.324;2023-03-01T11:56:54;15.13;;;5.40;;
57055;SDS011;42945;51.718;5.324;2023-03-01T12:09:23;12.23;;;6.20;;
57055;SDS011;42945;51.718;5.324;2023-03-01T12:15:34;9.93;;;5.20;;
57055;SDS011;42945;51.718;5.324;2023-03-01T12:21:40;9.82;;;5.57;;
57055;SDS011;42945;51.718;5.324;2023-03-01T12:39:57;12.32;;;5.55;;
57055;SDS011;42945;51.718;5.324;2023-03-01T13:02:04;12.35;;;5.70;;
57055;SDS011;42945;51.718;5.324;2023-03-01T13:20:18;11.18;;;5.28;;
57055;SDS011;42945;51.718;5.324;2023-03-01T13:31:59;8.55;;;4.72;;
57055;SDS011;42945;51.718;5.324;2023-03-01T13:37:48;11.10;;;4.97;;
57055;SDS011;42945;51.718;5.324;2023-03-01T13:43:37;10.77;;;5.63;;
57055;SDS011;42945;51.718;5.324;2023-03-01T13:49:30;13.80;;;5.07;;
57055;SDS011;42945;51.718;5.324;2023-03-01T14:01:52;9.48;;;5.03;;
57055;SDS011;42945;51.718;5.324;2023-03-01T14:07:41;8.00;;;4.60;;
57055;SDS011;42945;51.718;5.324;2023-03-01T14:19:21;12.38;;;5.22;;
57055;SDS011;42945;51.718;5.324;2023-03-01T14:25:19;10.00;;;5.30;;
57055;SDS011;42945;51.718;5.324;2023-03-01T14:31:34;7.63;;;5.18;;
57055;SDS011;42945;51.718;5.324;2023-03-01T14:37:29;11.98;;;4.32;;
57055;SDS011;42945;51.718;5.324;2023-03-01T14:43:20;11.63;;;4.72;;
57055;SDS011;42945;51.718;5.324;2023-03-01T14:49:15;8.77;;;4.30;;
57055;SDS011;42945;51.718;5.324;2023-03-01T14:55:12;9.35;;;4.30;;
57055;SDS011;42945;51.718;5.324;2023-03-01T15:05:32;7.63;;;4.80;;
57055;SDS011;42945;51.718;5.324;2023-03-01T15:11:30;12.18;;;4.85;;
57055;SDS011;42945;51.718;5.324;2023-03-01T15:17:28;9.48;;;5.03;;
57055;SDS011;42945;51.718;5.324;2023-03-01T15:23:28;9.18;;;5.22;;
57055;SDS011;42945;51.718;5.324;2023-03-01T15:29:18;8.77;;;5.43;;
57055;SDS011;42945;51.718;5.324;2023-03-01T15:41:45;17.40;;;5.55;;
57055;SDS011;42945;51.718;5.324;2023-03-01T15:47:36;7.53;;;4.35;;
57055;SDS011;42945;51.718;5.324;2023-03-01T15:53:27;11.15;;;4.55;;
57055;SDS011;42945;51.718;5.324;2023-03-01T15:59:17;8.85;;;4.88;;
57055;SDS011;42945;51.718;5.324;2023-03-01T16:05:22;8.45;;;5.10;;
57055;SDS011;42945;51.718;5.324;2023-03-01T16:10:53;8.52;;;4.53;;
57055;SDS011;42945;51.718;5.324;2023-03-01T16:16:42;13.10;;;7.03;;
57055;SDS011;42945;51.718;5.324;2023-03-01T16:22:31;11.13;;;5.75;;
57055;SDS011;42945;51.718;5.324;2023-03-01T16:28:19;13.35;;;5.25;;
57055;SDS011;42945;51.718;5.324;2023-03-01T16:34:07;8.35;;;4.93;;
57055;SDS011;42945;51.718;5.324;2023-03-01T16:39:55;10.55;;;5.07;;
57055;SDS011;42945;51.718;5.324;2023-03-01T16:45:43;13.07;;;4.72;;
57055;SDS011;42945;51.718;5.324;2023-03-01T16:51:32;9.05;;;4.57;;
57055;SDS011;42945;51.718;5.324;2023-03-01T16:57:23;10.35;;;5.38;;
57055;SDS011;42945;51.718;5.324;2023-03-01T17:06:59;9.82;;;5.22;;
57055;SDS011;42945;51.718;5.324;2023-03-01T17:12:50;10.63;;;5.35;;
57055;SDS011;42945;51.718;5.324;2023-03-01T17:18:38;9.10;;;5.32;;
57055;SDS011;42945;51.718;5.324;2023-03-01T17:24:27;11.02;;;4.75;;
57055;SDS011;42945;51.718;5.324;2023-03-01T17:30:16;12.32;;;5.28;;
57055;SDS011;42945;51.718;5.324;2023-03-01T17:36:05;13.20;;;4.88;;
57055;SDS011;42945;51.718;5.324;2023-03-01T17:41:54;11.77;;;4.82;;
57055;SDS011;42945;51.718;5.324;2023-03-01T17:47:42;12.15;;;4.93;;
57055;SDS011;42945;51.718;5.324;2023-03-01T17:53:29;8.95;;;4.85;;
57055;SDS011;42945;51.718;5.324;2023-03-01T17:59:17;9.73;;;5.05;;
57055;SDS011;42945;51.718;5.324;2023-03-01T18:08:41;10.70;;;5.32;;
57055;SDS011;42945;51.718;5.324;2023-03-01T18:14:31;9.20;;;4.80;;
57055;SDS011;42945;51.718;5.324;2023-03-01T18:20:20;12.18;;;5.22;;
57055;SDS011;42945;51.718;5.324;2023-03-01T18:26:09;11.95;;;5.00;;
57055;SDS011;42945;51.718;5.324;2023-03-01T18:32:04;8.63;;;4.70;;
57055;SDS011;42945;51.718;5.324;2023-03-01T18:37:52;8.35;;;4.90;;
57055;SDS011;42945;51.718;5.324;2023-03-01T18:43:40;10.27;;;4.75;;
57055;SDS011;42945;51.718;5.324;2023-03-01T18:49:28;9.05;;;4.60;;
57055;SDS011;42945;51.718;5.324;2023-03-01T18:55:16;8.73;;;4.72;;
57055;SDS011;42945;51.718;5.324;2023-03-01T19:01:05;10.45;;;4.60;;
57055;SDS011;42945;51.718;5.324;2023-03-01T19:10:55;10.68;;;4.32;;
57055;SDS011;42945;51.718;5.324;2023-03-01T19:16:44;14.02;;;4.50;;
57055;SDS011;42945;51.718;5.324;2023-03-01T19:22:32;9.55;;;4.30;;
57055;SDS011;42945;51.718;5.324;2023-03-01T19:28:20;9.90;;;4.30;;
57055;SDS011;42945;51.718;5.324;2023-03-01T19:34:08;8.60;;;3.97;;
57055;SDS011;42945;51.718;5.324;2023-03-01T19:39:59;9.93;;;4.32;;
57055;SDS011;42945;51.718;5.324;2023-03-01T19:45:51;7.75;;;3.92;;
57055;SDS011;42945;51.718;5.324;2023-03-01T19:51:39;9.57;;;3.05;;
57055;SDS011;42945;51.718;5.324;2023-03-01T19:57:27;7.32;;;3.72;;
57055;SDS011;42945;51.718;5.324;2023-03-01T20:03:15;12.80;;;4.30;;
57055;SDS011;42945;51.718;5.324;2023-03-01T20:12:59;11.45;;;4.10;;
57055;SDS011;42945;51.718;5.324;2023-03-01T20:18:48;12.68;;;4.60;;
57055;SDS011;42945;51.718;5.324;2023-03-01T20:24:36;10.63;;;4.45;;
57055;SDS011;42945;51.718;5.324;2023-03-01T20:30:24;9.57;;;4.10;;
57055;SDS011;42945;51.718;5.324;2023-03-01T20:36:12;9.77;;;4.18;;
57055;SDS011;42945;51.718;5.324;2023-03-01T20:42:00;9.13;;;4.45;;
57055;SDS011;42945;51.718;5.324;2023-03-01T20:47:50;9.23;;;4.65;;
57055;SDS011;42945;51.718;5.324;2023-03-01T20:53:39;11.10;;;5.25;;
57055;SDS011;42945;51.718;5.324;2023-03-01T20:59:28;10.65;;;5.18;;
57055;SDS011;42945;51.718;5.324;2023-03-01T21:05:17;11.88;;;5.40;;
57055;SDS011;42945;51.718;5.324;2023-03-01T21:15:00;15.27;;;6.35;;
57055;SDS011;42945;51.718;5.324;2023-03-01T21:20:48;11.93;;;5.75;;
57055;SDS011;42945;51.718;5.324;2023-03-01T21:26:36;13.00;;;6.03;;
57055;SDS011;42945;51.718;5.324;2023-03-01T21:32:26;11.50;;;6.15;;
57055;SDS011;42945;51.718;5.324;2023-03-01T21:38:14;15.57;;;6.95;;
57055;SDS011;42945;51.718;5.324;2023-03-01T21:44:02;10.73;;;5.28;;
57055;SDS011;42945;51.718;5.324;2023-03-01T21:49:50;13.43;;;5.88;;
57055;SDS011;42945;51.718;5.324;2023-03-01T21:55:45;16.08;;;5.80;;
57055;SDS011;42945;51.718;5.324;2023-03-01T22:01:34;13.35;;;5.53;;
57055;SDS011;42945;51.718;5.324;2023-03-01T22:07:26;12.93;;;5.57;;
57055;SDS011;42945;51.718;5.324;2023-03-01T22:17:13;13.30;;;5.33;;
57055;SDS011;42945;51.718;5.324;2023-03-01T22:23:01;12.75;;;6.28;;
57055;SDS011;42945;51.718;5.324;2023-03-01T22:28:51;11.38;;;5.85;;
57055;SDS011;42945;51.718;5.324;2023-03-01T22:34:40;11.63;;;5.25;;
57055;SDS011;42945;51.718;5.324;2023-03-01T22:40:28;11.48;;;5.75;;
57055;SDS011;42945;51.718;5.324;2023-03-01T22:46:17;11.40;;;4.95;;
57055;SDS011;42945;51.718;5.324;2023-03-01T22:52:06;11.10;;;5.60;;
57055;SDS011;42945;51.718;5.324;2023-03-01T22:57:54;10.52;;;5.13;;
57055;SDS011;42945;51.718;5.324;2023-03-01T23:03:43;13.57;;;5.70;;
57055;SDS011;42945;51.718;5.324;2023-03-01T23:09:32;13.70;;;5.65;;
57055;SDS011;42945;51.718;5.324;2023-03-01T23:19:14;17.10;;;6.13;;
57055;SDS011;42945;51.718;5.324;2023-03-01T23:25:03;10.98;;;5.50;;
57055;SDS011;42945;51.718;5.324;2023-03-01T23:30:54;11.05;;;6.10;;
57055;SDS011;42945;51.718;5.324;2023-03-01T23:36:41;11.95;;;5.85;;
57055;SDS011;42945;51.718;5.324;2023-03-01T23:42:32;12.70;;;6.03;;
57055;SDS011;42945;51.718;5.324;2023-03-01T23:48:20;13.52;;;6.38;;
57055;SDS011;42945;51.718;5.324;2023-03-01T23:54:08;12.27;;;5.85;;
